createdAt,value
2022-09-23T00:02:16.637Z,98386.34
2022-09-23T00:04:48.137Z,98389.96
2022-09-23T00:07:19.559Z,98393.27
2022-09-23T00:09:51.288Z,98394.00
2022-09-23T00:12:22.801Z,98390.68
2022-09-23T00:14:54.357Z,98389.33
2022-09-23T00:17:27.242Z,98385.42
2022-09-23T00:19:58.789Z,98385.77
2022-09-23T00:22:28.777Z,98385.27
2022-09-23T00:25:00.256Z,98385.29
2022-09-23T00:27:33.147Z,98386.88
2022-09-23T00:30:05.868Z,98384.34
2022-09-23T00:32:37.984Z,98382.64
2022-09-23T00:35:10.690Z,98385.23
2022-09-23T00:37:42.562Z,98382.63
2022-09-23T00:40:14.166Z,98382.83
2022-09-23T00:42:51.122Z,98379.14
2022-09-23T00:45:22.542Z,98376.40
2022-09-23T00:47:57.780Z,98373.09
2022-09-23T00:50:32.211Z,98373.36
2022-09-23T00:53:06.634Z,98372.69
2022-09-23T00:55:43.256Z,98373.77
2022-09-23T00:58:19.416Z,98372.44
2022-09-23T01:00:50.879Z,98369.63
2022-09-23T01:03:23.004Z,98372.40
2022-09-23T01:05:55.315Z,98371.04
2022-09-23T01:08:28.468Z,98369.09
2022-09-23T01:11:11.121Z,98366.13
2022-09-23T01:13:54.384Z,98367.02
2022-09-23T01:16:34.648Z,98367.80
2022-09-23T01:19:24.041Z,98366.98
2022-09-23T01:22:05.810Z,98364.27
2022-09-23T01:24:59.513Z,98362.51
2022-09-23T01:27:42.957Z,98360.54
2022-09-23T01:30:46.311Z,98360.80
2022-09-23T01:33:26.266Z,98365.11
2022-09-23T01:36:11.729Z,98362.54
2022-09-23T01:38:53.671Z,98363.63
2022-09-23T01:41:43.949Z,98360.94
2022-09-23T01:44:22.916Z,98362.27
2022-09-23T01:46:58.093Z,98365.80
2022-09-23T01:49:34.728Z,98362.17
2022-09-23T01:52:38.732Z,98357.72
2022-09-23T01:55:17.194Z,98358.05
2022-09-23T01:57:56.253Z,98363.48
2022-09-23T02:00:30.657Z,98362.20
2022-09-23T02:03:05.893Z,98361.42
2022-09-23T02:05:44.012Z,98357.73
2022-09-23T02:08:19.172Z,98357.42
2022-09-23T02:10:56.180Z,98354.98
2022-09-23T02:13:32.622Z,98352.90
2022-09-23T02:16:11.800Z,98353.41
2022-09-23T02:18:48.626Z,98353.81
2022-09-23T02:21:24.381Z,98357.20
2022-09-23T02:24:03.133Z,98358.75
2022-09-23T02:26:38.404Z,98359.96
2022-09-23T02:29:19.498Z,98355.96
2022-09-23T02:31:59.089Z,98355.03
2022-09-23T02:34:43.874Z,98352.96
2022-09-23T02:37:24.726Z,98352.41
2022-09-23T02:40:02.930Z,98355.15
2022-09-23T02:42:41.193Z,98358.63
2022-09-23T02:45:12.644Z,98360.31
2022-09-23T02:47:47.754Z,98359.36
2022-09-23T02:50:19.548Z,98360.17
2022-09-23T02:52:51.518Z,98363.10
2022-09-23T02:55:26.236Z,98362.48
2022-09-23T02:57:57.967Z,98363.91
2022-09-23T03:00:36.411Z,98365.20
2022-09-23T03:03:24.117Z,98365.11
2022-09-23T03:05:59.671Z,98360.33
2022-09-23T03:08:44.650Z,98358.23
2022-09-23T03:11:17.595Z,98358.61
2022-09-23T03:14:05.113Z,98355.89
2022-09-23T03:16:43.713Z,98356.17
2022-09-23T03:19:24.467Z,98355.83
2022-09-23T03:22:05.347Z,98355.40
2022-09-23T03:24:39.995Z,98351.85
2022-09-23T03:27:16.549Z,98354.53
2022-09-23T03:29:50.070Z,98354.48
2022-09-23T03:32:24.377Z,98353.73
2022-09-23T03:34:58.860Z,98355.11
2022-09-23T03:37:34.844Z,98355.48
2022-09-23T03:40:14.680Z,98358.64
2022-09-23T03:42:48.982Z,98358.34
2022-09-23T03:45:23.769Z,98354.06
2022-09-23T03:47:55.713Z,98355.68
2022-09-23T03:50:27.552Z,98355.68
2022-09-23T03:52:59.586Z,98351.81
2022-09-23T03:55:32.133Z,98352.61
2022-09-23T03:58:04.754Z,98354.09
2022-09-23T04:00:37.148Z,98358.84
2022-09-23T04:03:11.762Z,98355.55
2022-09-23T04:05:43.534Z,98359.90
2022-09-23T04:08:14.986Z,98358.30
2022-09-23T04:10:46.971Z,98356.93
2022-09-23T04:13:19.256Z,98357.20
2022-09-23T04:15:53.473Z,98355.00
2022-09-23T04:18:25.096Z,98351.55
2022-09-23T04:20:59.668Z,98344.95
2022-09-23T04:23:31.565Z,98346.15
2022-09-23T04:26:02.954Z,98344.21
2022-09-23T04:28:34.413Z,98342.29
2022-09-23T04:31:09.357Z,98345.77
2022-09-23T04:33:41.073Z,98347.74
2022-09-23T04:36:12.623Z,98351.58
2022-09-23T04:38:45.977Z,98348.62
2022-09-23T04:41:18.876Z,98347.50
2022-09-23T04:43:50.343Z,98346.59
2022-09-23T04:46:21.885Z,98344.13
2022-09-23T04:48:51.910Z,98340.46
2022-09-23T04:51:25.772Z,98342.58
2022-09-23T04:53:57.689Z,98345.91
2022-09-23T04:56:32.561Z,98348.06
2022-09-23T04:59:04.163Z,98345.06
2022-09-23T05:01:36.297Z,98343.89
2022-09-23T05:04:14.091Z,98343.09
2022-09-23T05:06:45.805Z,98346.73
2022-09-23T05:09:17.776Z,98348.48
2022-09-23T05:11:48.485Z,98349.44
2022-09-23T05:14:20.131Z,98350.75
2022-09-23T05:16:50.092Z,98352.50
2022-09-23T05:19:22.220Z,98356.10
2022-09-23T05:21:53.670Z,98352.39
2022-09-23T05:24:26.222Z,98359.01
2022-09-23T05:26:57.720Z,98359.67
2022-09-23T05:29:27.945Z,98359.15
2022-09-23T05:31:59.833Z,98360.28
2022-09-23T05:34:32.262Z,98362.07
2022-09-23T05:37:04.377Z,98362.42
2022-09-23T05:39:35.805Z,98363.21
2022-09-23T05:42:07.973Z,98365.73
2022-09-23T05:44:40.118Z,98369.27
2022-09-23T05:47:11.582Z,98369.88
2022-09-23T05:49:59.271Z,98370.05
2022-09-23T05:52:31.533Z,98371.48
2022-09-23T05:55:03.245Z,98375.30
2022-09-23T05:57:34.765Z,98370.73
2022-09-23T06:00:10.531Z,98367.00
2022-09-23T06:02:43.546Z,98368.46
2022-09-23T06:05:15.720Z,98365.95
2022-09-23T06:07:47.159Z,98366.94
2022-09-23T06:10:18.942Z,98365.65
2022-09-23T06:12:50.436Z,98368.72
2022-09-23T06:15:21.907Z,98364.02
2022-09-23T06:17:53.357Z,98368.56
2022-09-23T06:20:24.796Z,98369.31
2022-09-23T06:22:58.149Z,98368.27
2022-09-23T06:25:29.634Z,98365.38
2022-09-23T06:28:01.156Z,98367.01
2022-09-23T06:30:31.178Z,98365.30
2022-09-23T06:33:03.031Z,98369.37
2022-09-23T06:35:33.456Z,98368.95
2022-09-23T06:38:06.605Z,98370.69
2022-09-23T06:40:38.281Z,98371.57
2022-09-23T06:43:08.298Z,98371.25
2022-09-23T06:45:39.818Z,98374.23
2022-09-23T06:48:11.447Z,98376.08
2022-09-23T06:50:41.457Z,98379.14
2022-09-23T06:53:13.429Z,98378.22
2022-09-23T06:55:45.378Z,98386.41
2022-09-23T06:58:17.044Z,98386.89
2022-09-23T07:00:48.471Z,98391.02
2022-09-23T07:03:20.949Z,98391.74
2022-09-23T07:05:57.005Z,98391.39
2022-09-23T07:08:30.281Z,98391.63
2022-09-23T07:11:03.283Z,98391.77
2022-09-23T07:13:37.017Z,98393.99
2022-09-23T07:16:09.611Z,98393.88
2022-09-23T07:18:41.483Z,98394.41
2022-09-23T07:21:15.231Z,98395.20
2022-09-23T07:23:48.290Z,98398.83
2022-09-23T07:26:20.851Z,98397.82
2022-09-23T07:28:56.389Z,98400.76
2022-09-23T07:31:38.722Z,98397.08
2022-09-23T07:34:12.152Z,98396.14
2022-09-23T07:36:43.955Z,98395.35
2022-09-23T07:39:14.299Z,98393.98
2022-09-23T07:41:45.694Z,98396.00
2022-09-23T07:44:17.928Z,98400.48
2022-09-23T07:46:50.020Z,98403.48
2022-09-23T07:49:21.569Z,98398.15
2022-09-23T07:51:52.806Z,98401.27
2022-09-23T07:54:25.480Z,98397.99
2022-09-23T07:56:57.112Z,98396.81
2022-09-23T07:59:28.656Z,98394.39
2022-09-23T08:01:58.681Z,98391.68
2022-09-23T08:04:33.143Z,98394.88
2022-09-23T08:07:06.721Z,98388.64
2022-09-23T08:09:41.842Z,98386.08
2022-09-23T08:12:16.454Z,98386.20
2022-09-23T08:14:47.970Z,98387.66
2022-09-23T08:17:17.923Z,98389.25
2022-09-23T08:19:49.361Z,98384.46
2022-09-23T08:22:19.830Z,98384.54
2022-09-23T08:24:53.034Z,98382.44
2022-09-23T08:27:28.078Z,98376.71
2022-09-23T08:29:59.581Z,98377.98
2022-09-23T08:32:31.755Z,98376.04
2022-09-23T08:35:03.216Z,98374.64
2022-09-23T08:37:33.183Z,98375.11
2022-09-23T08:40:05.268Z,98373.64
2022-09-23T08:42:40.073Z,98372.11
2022-09-23T08:45:18.473Z,98366.49
2022-09-23T08:47:54.871Z,98365.91
2022-09-23T08:50:29.809Z,98366.31
2022-09-23T08:53:04.516Z,98367.90
2022-09-23T08:55:42.680Z,98365.01
2022-09-23T08:58:30.909Z,98363.48
2022-09-23T09:01:11.603Z,98367.23
2022-09-23T09:03:50.491Z,98367.38
2022-09-23T09:06:27.059Z,98369.86
2022-09-23T09:09:02.108Z,98369.34
2022-09-23T09:11:38.122Z,98370.19
2022-09-23T09:14:19.566Z,98368.04
2022-09-23T09:16:59.965Z,98366.70
2022-09-23T09:19:56.713Z,98362.08
2022-09-23T09:22:42.909Z,98361.89
2022-09-23T09:25:24.835Z,98360.69
2022-09-23T09:27:58.413Z,98359.80
2022-09-23T09:30:30.587Z,98361.72
2022-09-23T09:33:06.806Z,98363.05
2022-09-23T09:35:43.322Z,98361.57
2022-09-23T09:38:15.273Z,98357.37
2022-09-23T09:40:49.688Z,98360.63
2022-09-23T09:43:23.352Z,98353.83
2022-09-23T09:46:08.312Z,98352.64
2022-09-23T09:48:50.731Z,98348.36
2022-09-23T09:51:24.824Z,98343.53
2022-09-23T09:54:16.226Z,98341.26
2022-09-23T09:59:29.278Z,98329.45
2022-09-23T10:05:04.663Z,98323.14
2022-09-23T10:07:36.821Z,98316.66
2022-09-23T10:10:36.501Z,98312.89
2022-09-23T10:13:20.540Z,98313.31
2022-09-23T10:15:54.756Z,98307.77
2022-09-23T10:18:33.575Z,98304.86
2022-09-23T10:21:12.096Z,98308.54
2022-09-23T10:23:46.441Z,98304.30
2022-09-23T10:26:18.417Z,98301.64
2022-09-23T10:28:51.863Z,98303.39
2022-09-23T10:31:26.684Z,98303.94
2022-09-23T10:34:00.668Z,98302.46
2022-09-23T10:36:33.884Z,98300.83
2022-09-23T10:39:24.841Z,98300.67
2022-09-23T10:42:21.867Z,98300.67
2022-09-23T10:45:24.751Z,98297.40
2022-09-23T10:48:05.724Z,98298.98
2022-09-23T10:50:42.991Z,98292.59
2022-09-23T10:53:24.062Z,98293.02
2022-09-23T10:56:16.781Z,98294.88
2022-09-23T10:59:09.206Z,98293.77
2022-09-23T11:01:49.625Z,98296.05
2022-09-23T11:04:41.742Z,98293.40
2022-09-23T11:07:28.100Z,98293.26
2022-09-23T11:10:29.284Z,98293.55
2022-09-23T11:13:17.115Z,98289.70
2022-09-23T11:16:00.875Z,98292.70
2022-09-23T11:18:52.214Z,98291.77
2022-09-23T11:21:39.534Z,98282.70
2022-09-23T11:24:28.016Z,98282.53
2022-09-23T11:27:09.078Z,98280.15
2022-09-23T11:30:02.583Z,98277.84
2022-09-23T11:32:52.649Z,98270.29
2022-09-23T11:35:28.843Z,98266.11
2022-09-23T11:38:12.340Z,98262.80
2022-09-23T11:40:47.370Z,98260.22
2022-09-23T11:43:23.476Z,98257.09
2022-09-23T11:46:02.101Z,98252.64
2022-09-23T11:48:41.272Z,98258.92
2022-09-23T11:51:17.868Z,98257.92
2022-09-23T11:53:54.721Z,98254.52
2022-09-23T11:56:36.013Z,98252.98
2022-09-23T11:59:17.072Z,98252.12
2022-09-23T12:01:52.731Z,98248.37
2022-09-23T12:04:31.177Z,98249.72
2022-09-23T12:07:09.657Z,98246.06
2022-09-23T12:09:58.819Z,98242.40
2022-09-23T12:12:36.698Z,98235.65
2022-09-23T12:15:20.325Z,98232.89
2022-09-23T12:18:11.075Z,98228.89
2022-09-23T12:20:54.771Z,98226.66
2022-09-23T12:23:44.105Z,98227.65
2022-09-23T12:26:20.110Z,98219.00
2022-09-23T12:28:55.479Z,98217.27
2022-09-23T12:31:33.066Z,98215.98
2022-09-23T12:34:23.201Z,98212.80
2022-09-23T12:36:54.717Z,98213.23
2022-09-23T12:39:31.306Z,98211.48
2022-09-23T12:42:04.219Z,98210.98
2022-09-23T12:44:41.149Z,98207.27
2022-09-23T12:47:39.025Z,98204.49
2022-09-23T12:50:45.264Z,98196.41
2022-09-23T12:53:54.650Z,98193.35
2022-09-23T12:56:29.864Z,98189.64
2022-09-23T12:59:21.669Z,98190.66
2022-09-23T13:01:53.918Z,98189.00
2022-09-23T13:05:01.508Z,98187.77
2022-09-23T13:07:34.799Z,98182.74
2022-09-23T13:10:16.533Z,98179.10
2022-09-23T13:12:49.201Z,98180.23
2022-09-23T13:15:28.691Z,98180.48
2022-09-23T13:18:50.362Z,98177.73
2022-09-23T13:22:13.675Z,98176.11
2022-09-23T13:24:53.404Z,98170.81
2022-09-23T13:27:31.183Z,98165.39
2022-09-23T13:30:07.803Z,98163.08
2022-09-23T13:32:46.011Z,98162.66
2022-09-23T13:35:26.723Z,98167.08
2022-09-23T13:37:58.286Z,98161.21
2022-09-23T13:40:31.687Z,98160.53
2022-09-23T13:43:06.466Z,98157.13
2022-09-23T13:45:43.206Z,98156.22
2022-09-23T13:48:16.544Z,98154.16
2022-09-23T13:50:51.037Z,98154.70
2022-09-23T13:53:27.367Z,98152.21
2022-09-23T13:56:07.882Z,98147.06
2022-09-23T13:58:40.225Z,98145.09
2022-09-23T14:01:22.532Z,98148.83
2022-09-23T14:03:54.104Z,98144.86
2022-09-23T14:06:27.312Z,98141.04
2022-09-23T14:09:02.298Z,98136.36
2022-09-23T14:11:35.941Z,98133.14
2022-09-23T14:14:14.515Z,98127.66
2022-09-23T14:16:46.437Z,98127.96
2022-09-23T14:19:21.067Z,98126.66
2022-09-23T14:21:54.282Z,98126.99
2022-09-23T14:24:32.500Z,98125.88
2022-09-23T14:27:15.094Z,98122.80
2022-09-23T14:29:49.326Z,98119.89
2022-09-23T14:32:24.986Z,98117.98
2022-09-23T14:35:17.025Z,98121.52
2022-09-23T14:38:08.664Z,98120.50
2022-09-23T14:40:39.749Z,98120.44
2022-09-23T14:43:23.189Z,98122.40
2022-09-23T14:45:56.516Z,98119.34
2022-09-23T14:48:31.638Z,98116.15
2022-09-23T14:51:06.031Z,98116.06
2022-09-23T14:53:40.858Z,98114.71
2022-09-23T14:56:16.765Z,98113.02
2022-09-23T14:58:53.033Z,98114.35
2022-09-23T15:01:39.691Z,98115.81
2022-09-23T15:04:18.178Z,98118.48
2022-09-23T15:06:54.314Z,98113.30
2022-09-23T15:09:29.795Z,98109.01
2022-09-23T15:12:04.689Z,98109.67
2022-09-23T15:14:41.268Z,98109.95
2022-09-23T15:17:25.902Z,98108.81
2022-09-23T15:19:59.728Z,98108.85
2022-09-23T15:22:31.357Z,98106.27
2022-09-23T15:25:18.784Z,98110.86
2022-09-23T15:28:02.450Z,98106.60
2022-09-23T15:30:35.956Z,98107.37
2022-09-23T15:33:09.731Z,98109.52
2022-09-23T15:35:49.190Z,98110.09
2022-09-23T15:38:21.099Z,98106.08
2022-09-23T15:40:52.654Z,98108.61
2022-09-23T15:43:26.694Z,98104.59
2022-09-23T15:46:01.090Z,98104.29
2022-09-23T15:48:39.486Z,98101.08
2022-09-23T15:51:15.227Z,98105.27
2022-09-23T15:53:47.849Z,98104.05
2022-09-23T15:56:19.341Z,98104.02
2022-09-23T15:58:49.521Z,98104.84
2022-09-23T16:01:28.802Z,98105.77
2022-09-23T16:04:01.769Z,98103.38
2022-09-23T16:06:36.049Z,98104.58
2022-09-23T16:09:08.246Z,98102.39
2022-09-23T16:11:42.095Z,98101.89
2022-09-23T16:14:16.567Z,98104.95
2022-09-23T16:16:48.490Z,98102.84
2022-09-23T16:19:20.070Z,98107.19
2022-09-23T16:21:50.096Z,98103.71
2022-09-23T16:24:26.005Z,98102.96
2022-09-23T16:27:03.451Z,98107.35
2022-09-23T16:29:34.971Z,98103.34
2022-09-23T16:32:04.994Z,98103.77
2022-09-23T16:34:36.489Z,98109.07
2022-09-23T16:37:07.147Z,98104.74
2022-09-23T16:39:38.955Z,98106.26
2022-09-23T16:42:10.913Z,98105.73
2022-09-23T16:44:42.520Z,98101.04
2022-09-23T16:47:14.244Z,98101.89
2022-09-23T16:49:45.833Z,98102.00
2022-09-23T16:52:20.167Z,98102.21
2022-09-23T16:54:52.442Z,98101.11
2022-09-23T16:57:24.137Z,98101.88
2022-09-23T17:00:13.769Z,98105.40
2022-09-23T17:03:02.963Z,98107.11
2022-09-23T17:05:34.688Z,98104.20
2022-09-23T17:08:07.654Z,98103.08
2022-09-23T17:10:39.190Z,98104.76
2022-09-23T17:13:12.797Z,98102.00
2022-09-23T17:15:45.103Z,98100.59
2022-09-23T17:18:19.497Z,98098.89
2022-09-23T17:21:02.053Z,98098.02
2022-09-23T17:23:37.533Z,98100.01
2022-09-23T17:26:09.821Z,98100.39
2022-09-23T17:28:41.510Z,98104.02
2022-09-23T17:31:13.264Z,98105.86
2022-09-23T17:33:45.156Z,98103.54
2022-09-23T17:36:19.625Z,98104.02
2022-09-23T17:38:53.634Z,98104.47
2022-09-23T17:41:25.619Z,98101.72
2022-09-23T17:44:00.789Z,98101.31
2022-09-23T17:46:32.604Z,98103.79
2022-09-23T17:49:05.622Z,98107.04
2022-09-23T17:51:37.600Z,98109.27
2022-09-23T17:54:10.311Z,98112.96
2022-09-23T17:56:42.518Z,98112.31
2022-09-23T17:59:14.744Z,98112.62
2022-09-23T18:01:46.738Z,98117.77
2022-09-23T18:04:18.588Z,98116.05
2022-09-23T18:06:51.494Z,98117.67
2022-09-23T18:09:30.624Z,98116.83
2022-09-23T18:12:02.871Z,98116.28
2022-09-23T18:14:37.074Z,98116.93
2022-09-23T18:17:09.596Z,98116.08
2022-09-23T18:19:42.597Z,98120.22
2022-09-23T18:22:15.146Z,98123.27
2022-09-23T18:24:47.375Z,98126.10
2022-09-23T18:27:19.296Z,98126.89
2022-09-23T18:29:51.551Z,98127.84
2022-09-23T18:32:23.324Z,98125.79
2022-09-23T18:34:55.400Z,98124.16
2022-09-23T18:37:27.707Z,98123.73
2022-09-23T18:39:59.713Z,98125.86
2022-09-23T18:42:32.348Z,98122.95
2022-09-23T18:45:04.761Z,98124.42
2022-09-23T18:47:54.179Z,98121.02
2022-09-23T18:50:42.246Z,98122.67
2022-09-23T18:53:14.106Z,98123.67
2022-09-23T18:55:45.921Z,98122.27
2022-09-23T18:58:17.829Z,98122.79
2022-09-23T19:00:51.515Z,98119.89
2022-09-23T19:03:23.452Z,98120.66
2022-09-23T19:05:55.442Z,98123.63
2022-09-23T19:08:27.327Z,98123.17
2022-09-23T19:11:01.679Z,98123.66
2022-09-23T19:13:35.065Z,98123.75
2022-09-23T19:16:11.942Z,98126.73
2022-09-23T19:18:46.469Z,98128.23
2022-09-23T19:21:23.118Z,98126.13
2022-09-23T19:23:57.328Z,98122.52
2022-09-23T19:26:32.162Z,98124.33
2022-09-23T19:29:06.336Z,98122.08
2022-09-23T19:31:40.881Z,98119.54
2022-09-23T19:34:17.812Z,98119.70
2022-09-23T19:36:50.679Z,98118.60
2022-09-23T19:39:24.406Z,98121.52
2022-09-23T19:41:57.622Z,98118.70
2022-09-23T19:44:32.628Z,98115.95
2022-09-23T19:47:04.908Z,98111.73
2022-09-23T19:49:36.714Z,98115.38
2022-09-23T19:52:08.460Z,98119.95
2022-09-23T19:54:40.606Z,98122.01
2022-09-23T19:57:12.628Z,98122.20
2022-09-23T19:59:45.601Z,98123.08
2022-09-23T20:02:18.010Z,98122.25
2022-09-23T20:04:51.949Z,98122.48
2022-09-23T20:07:23.820Z,98119.92
2022-09-23T20:09:56.376Z,98114.91
2022-09-23T20:12:29.198Z,98113.70
2022-09-23T20:15:01.215Z,98116.36
2022-09-23T20:17:33.034Z,98113.16
2022-09-23T20:20:05.483Z,98112.82
2022-09-23T20:22:37.034Z,98110.40
2022-09-23T20:25:13.455Z,98112.30
2022-09-23T20:27:49.484Z,98105.84
2022-09-23T20:30:21.727Z,98106.55
2022-09-23T20:32:53.413Z,98106.95
2022-09-23T20:35:23.538Z,98103.25
2022-09-23T20:37:55.231Z,98100.52
2022-09-23T20:40:25.259Z,98099.29
2022-09-23T20:42:56.804Z,98098.70
2022-09-23T20:45:28.261Z,98094.91
2022-09-23T20:48:00.725Z,98095.31
2022-09-23T20:50:32.213Z,98092.81
2022-09-23T20:53:03.650Z,98091.58
2022-09-23T20:55:35.291Z,98094.03
2022-09-23T20:58:05.403Z,98094.67
2022-09-23T21:00:38.634Z,98096.92
2022-09-23T21:03:10.389Z,98096.58
2022-09-23T21:05:42.481Z,98097.69
2022-09-23T21:08:13.999Z,98096.92
2022-09-23T21:10:53.801Z,98093.27
2022-09-23T21:13:25.736Z,98088.50
2022-09-23T21:15:58.206Z,98090.69
2022-09-23T21:18:29.892Z,98088.48
2022-09-23T21:21:01.068Z,98086.73
2022-09-23T21:23:34.628Z,98089.80
2022-09-23T21:26:08.084Z,98093.97
2022-09-23T21:28:41.602Z,98094.77
2022-09-23T21:31:22.629Z,98097.36
2022-09-23T21:33:59.037Z,98091.83
2022-09-23T21:36:32.722Z,98090.98
2022-09-23T21:39:05.442Z,98090.48
2022-09-23T21:41:37.744Z,98093.73
2022-09-23T21:44:09.454Z,98092.77
2022-09-23T21:46:39.592Z,98092.34
2022-09-23T21:49:11.075Z,98095.07
2022-09-23T21:51:43.186Z,98093.14
2022-09-23T21:54:17.510Z,98095.40
2022-09-23T21:56:49.056Z,98096.46
2022-09-23T21:59:20.476Z,98095.36
2022-09-23T22:01:54.203Z,98094.21
2022-09-23T22:04:26.023Z,98093.60
2022-09-23T22:06:59.220Z,98101.65
2022-09-23T22:09:30.998Z,98102.02
2022-09-23T22:12:11.162Z,98104.17
2022-09-23T22:14:43.349Z,98103.56
2022-09-23T22:17:16.491Z,98100.83
2022-09-23T22:19:48.785Z,98091.58
2022-09-23T22:22:20.592Z,98093.83
2022-09-23T22:24:52.318Z,98090.11
2022-09-23T22:27:23.608Z,98091.63
2022-09-23T22:30:13.006Z,98093.35
2022-09-23T22:32:52.812Z,98092.20
2022-09-23T22:35:25.881Z,98096.43
2022-09-23T22:37:57.340Z,98092.74
2022-09-23T22:40:28.933Z,98092.75
2022-09-23T22:42:58.971Z,98092.66
2022-09-23T22:45:30.418Z,98091.00
2022-09-23T22:48:05.074Z,98089.53
2022-09-23T22:50:39.682Z,98087.08
2022-09-23T22:53:11.169Z,98083.41
2022-09-23T22:55:43.009Z,98079.38
2022-09-23T22:58:31.140Z,98072.63
2022-09-23T23:01:03.581Z,98071.50
2022-09-23T23:03:36.616Z,98069.73
2022-09-23T23:06:10.599Z,98069.94
2022-09-23T23:08:42.103Z,98067.59
2022-09-23T23:11:13.660Z,98071.45
2022-09-23T23:13:43.724Z,98074.00
2022-09-23T23:16:15.405Z,98077.35
2022-09-23T23:18:47.708Z,98073.22
2022-09-23T23:21:21.603Z,98075.69
2022-09-23T23:23:54.168Z,98076.66
2022-09-23T23:26:27.915Z,98073.38
2022-09-23T23:28:59.870Z,98068.87
2022-09-23T23:31:33.152Z,98062.86
2022-09-23T23:34:04.725Z,98065.83
2022-09-23T23:36:37.172Z,98063.01
2022-09-23T23:39:08.964Z,98059.33
2022-09-23T23:41:41.617Z,98057.32
2022-09-23T23:44:14.823Z,98056.39
2022-09-23T23:46:46.325Z,98056.80
2022-09-23T23:49:16.497Z,98053.84
2022-09-23T23:51:48.021Z,98053.65
2022-09-23T23:54:23.072Z,98052.63
2022-09-23T23:56:55.212Z,98045.33
2022-09-23T23:59:28.770Z,98043.65
